createdAt,value
2023-03-17T00:00:44.657Z,2.85
2023-03-17T00:03:25.548Z,3.13
2023-03-17T00:05:53.369Z,4.75
2023-03-17T00:08:22.306Z,2.70
2023-03-17T00:10:49.505Z,3.08
2023-03-17T00:13:16.351Z,3.38
2023-03-17T00:15:43.386Z,3.25
2023-03-17T00:18:17.469Z,2.83
2023-03-17T00:20:44.228Z,3.35
2023-03-17T00:23:15.492Z,2.95
2023-03-17T00:25:43.247Z,2.83
2023-03-17T00:28:13.818Z,3.30
2023-03-17T00:30:40.135Z,3.33
2023-03-17T00:33:07.508Z,2.92
2023-03-17T00:35:34.385Z,3.80
2023-03-17T00:38:00.830Z,2.78
2023-03-17T00:40:32.552Z,3.90
2023-03-17T00:42:59.984Z,3.25
2023-03-17T00:45:27.099Z,3.22
2023-03-17T00:47:57.515Z,3.35
2023-03-17T00:50:25.255Z,3.33
2023-03-17T00:52:52.791Z,3.30
2023-03-17T00:55:19.656Z,3.15
2023-03-17T00:57:48.531Z,3.00
2023-03-17T01:00:20.791Z,3.03
2023-03-17T01:02:49.234Z,3.28
2023-03-17T01:05:16.137Z,2.88
2023-03-17T01:07:47.858Z,3.22
2023-03-17T01:10:16.436Z,3.40
2023-03-17T01:12:43.585Z,3.00
2023-03-17T01:15:13.092Z,3.38
2023-03-17T01:17:39.981Z,3.60
2023-03-17T01:20:07.533Z,3.72
2023-03-17T01:22:34.504Z,2.97
2023-03-17T01:25:01.572Z,3.60
2023-03-17T01:27:27.934Z,3.70
2023-03-17T01:29:54.953Z,3.30
2023-03-17T01:32:22.223Z,3.95
2023-03-17T01:34:48.588Z,3.70
2023-03-17T01:37:15.148Z,4.18
2023-03-17T01:39:41.910Z,3.03
2023-03-17T01:42:08.364Z,3.85
2023-03-17T01:44:34.891Z,3.33
2023-03-17T01:47:01.258Z,2.88
2023-03-17T01:49:29.247Z,3.13
2023-03-17T01:52:09.022Z,3.42
2023-03-17T01:54:48.083Z,3.55
2023-03-17T01:57:23.708Z,3.10
2023-03-17T01:59:51.519Z,3.03
2023-03-17T02:02:22.333Z,2.70
2023-03-17T02:04:52.010Z,2.75
2023-03-17T02:07:22.158Z,3.35
2023-03-17T02:09:48.762Z,2.95
2023-03-17T02:12:19.034Z,3.28
2023-03-17T02:14:48.956Z,3.10
2023-03-17T02:17:15.307Z,2.85
2023-03-17T02:19:42.393Z,2.88
2023-03-17T02:22:09.166Z,2.97
2023-03-17T02:24:56.949Z,2.78
2023-03-17T02:27:31.062Z,2.90
2023-03-17T02:29:58.063Z,2.92
2023-03-17T02:32:24.476Z,2.67
2023-03-17T02:34:50.952Z,3.05
2023-03-17T02:37:18.334Z,2.72
2023-03-17T02:39:44.878Z,2.75
2023-03-17T02:42:12.628Z,3.58
2023-03-17T02:44:40.418Z,2.70
2023-03-17T02:47:07.579Z,2.53
2023-03-17T02:49:34.563Z,2.90
2023-03-17T02:52:01.495Z,2.60
2023-03-17T02:54:27.970Z,2.88
2023-03-17T02:56:54.434Z,2.58
2023-03-17T02:59:20.790Z,2.53
2023-03-17T03:01:48.533Z,3.03
2023-03-17T03:04:15.073Z,2.55
2023-03-17T03:06:42.580Z,2.78
2023-03-17T03:09:09.156Z,3.45
2023-03-17T03:11:35.924Z,2.80
2023-03-17T03:14:02.343Z,2.53
2023-03-17T03:16:28.747Z,2.75
2023-03-17T03:18:55.254Z,2.50
2023-03-17T03:21:22.241Z,2.65
2023-03-17T03:23:48.742Z,2.50
2023-03-17T03:26:15.455Z,2.80
2023-03-17T03:28:42.103Z,2.60
2023-03-17T03:31:08.586Z,2.72
2023-03-17T03:33:35.043Z,2.60
2023-03-17T03:36:01.582Z,2.90
2023-03-17T03:38:28.301Z,2.72
2023-03-17T03:40:54.722Z,2.78
2023-03-17T03:43:25.158Z,2.78
2023-03-17T03:45:51.817Z,2.80
2023-03-17T03:48:18.629Z,2.38
2023-03-17T03:50:45.052Z,2.35
2023-03-17T03:53:11.384Z,2.58
2023-03-17T03:55:37.778Z,2.55
2023-03-17T03:58:04.206Z,3.28
2023-03-17T04:00:30.799Z,2.60
2023-03-17T04:02:57.481Z,2.83
2023-03-17T04:05:23.934Z,2.40
2023-03-17T04:07:50.536Z,2.30
2023-03-17T04:10:17.141Z,2.10
2023-03-17T04:12:43.599Z,2.88
2023-03-17T04:15:11.325Z,2.33
2023-03-17T04:17:38.050Z,2.25
2023-03-17T04:20:04.559Z,2.40
2023-03-17T04:22:30.959Z,2.60
2023-03-17T04:24:57.275Z,2.70
2023-03-17T04:27:23.962Z,2.33
2023-03-17T04:29:50.263Z,2.55
2023-03-17T04:32:17.041Z,2.67
2023-03-17T04:34:43.775Z,2.25
2023-03-17T04:37:10.862Z,2.70
2023-03-17T04:39:37.188Z,2.83
2023-03-17T04:42:04.242Z,2.47
2023-03-17T04:44:30.850Z,2.60
2023-03-17T04:46:57.228Z,2.30
2023-03-17T04:49:23.732Z,2.22
2023-03-17T04:51:50.092Z,2.53
2023-03-17T04:54:16.546Z,2.33
2023-03-17T04:56:43.044Z,2.42
2023-03-17T04:59:09.783Z,2.13
2023-03-17T05:01:39.079Z,2.75
2023-03-17T05:04:06.683Z,2.30
2023-03-17T05:06:33.032Z,2.67
2023-03-17T05:08:59.374Z,2.05
2023-03-17T05:11:25.746Z,2.28
2023-03-17T05:13:52.433Z,2.08
2023-03-17T05:16:19.825Z,2.38
2023-03-17T05:18:46.862Z,2.25
2023-03-17T05:21:13.237Z,2.20
2023-03-17T05:23:40.232Z,2.17
2023-03-17T05:26:06.602Z,2.10
2023-03-17T05:28:33.306Z,2.30
2023-03-17T05:31:01.505Z,2.00
2023-03-17T05:33:30.139Z,2.42
2023-03-17T05:35:56.676Z,2.90
2023-03-17T05:38:23.648Z,2.33
2023-03-17T05:40:51.238Z,2.42
2023-03-17T05:43:17.896Z,2.83
2023-03-17T05:45:44.958Z,2.13
2023-03-17T05:48:13.053Z,2.45
2023-03-17T05:50:39.877Z,2.40
2023-03-17T05:53:06.445Z,2.40
2023-03-17T05:55:32.965Z,2.33
2023-03-17T05:58:00.866Z,2.33
2023-03-17T06:00:29.311Z,2.30
2023-03-17T06:02:55.981Z,2.92
2023-03-17T06:05:22.386Z,2.00
2023-03-17T06:07:55.563Z,2.50
2023-03-17T06:10:23.193Z,2.30
2023-03-17T06:12:49.699Z,2.70
2023-03-17T06:15:17.002Z,2.47
2023-03-17T06:17:43.534Z,2.70
2023-03-17T06:20:10.291Z,2.22
2023-03-17T06:22:37.342Z,2.33
2023-03-17T06:25:04.380Z,2.50
2023-03-17T06:27:30.714Z,2.17
2023-03-17T06:29:57.850Z,2.88
2023-03-17T06:32:24.209Z,2.63
2023-03-17T06:34:51.775Z,2.88
2023-03-17T06:37:18.099Z,2.30
2023-03-17T06:39:45.125Z,2.38
2023-03-17T06:42:11.473Z,2.63
2023-03-17T06:44:37.859Z,2.38
2023-03-17T06:47:04.810Z,2.60
2023-03-17T06:49:31.203Z,2.75
2023-03-17T06:51:57.981Z,2.65
2023-03-17T06:54:25.408Z,2.42
2023-03-17T06:56:52.732Z,3.08
2023-03-17T06:59:19.872Z,2.70
2023-03-17T07:01:46.618Z,2.65
2023-03-17T07:04:13.114Z,2.85
2023-03-17T07:06:39.473Z,2.33
2023-03-17T07:09:07.382Z,2.60
2023-03-17T07:11:33.783Z,2.75
2023-03-17T07:14:00.505Z,2.65
2023-03-17T07:16:27.641Z,2.75
2023-03-17T07:18:54.287Z,2.97
2023-03-17T07:21:20.641Z,2.50
2023-03-17T07:23:47.780Z,3.03
2023-03-17T07:26:14.492Z,2.83
2023-03-17T07:28:40.916Z,2.80
2023-03-17T07:31:16.366Z,3.30
2023-03-17T07:33:42.940Z,2.50
2023-03-17T07:36:10.533Z,2.85
2023-03-17T07:38:37.403Z,3.15
2023-03-17T07:41:04.814Z,2.85
2023-03-17T07:43:31.788Z,2.65
2023-03-17T07:45:58.210Z,2.35
2023-03-17T07:48:24.686Z,3.17
2023-03-17T07:50:50.989Z,2.83
2023-03-17T07:53:17.312Z,2.78
2023-03-17T07:55:43.664Z,3.25
2023-03-17T07:58:10.540Z,2.55
2023-03-17T08:00:36.934Z,2.90
2023-03-17T08:03:10.365Z,3.03
2023-03-17T08:05:37.633Z,2.83
2023-03-17T08:08:05.254Z,2.80
2023-03-17T08:10:32.396Z,2.97
2023-03-17T08:12:58.940Z,2.72
2023-03-17T08:15:25.294Z,3.15
2023-03-17T08:17:51.691Z,2.80
2023-03-17T08:20:18.049Z,2.72
2023-03-17T08:22:44.552Z,3.25
2023-03-17T08:25:11.727Z,2.50
2023-03-17T08:27:38.618Z,2.90
2023-03-17T08:30:05.762Z,2.83
2023-03-17T08:32:32.138Z,3.22
2023-03-17T08:34:58.629Z,3.20
2023-03-17T08:37:24.998Z,3.33
2023-03-17T08:39:51.371Z,3.42
2023-03-17T08:42:17.722Z,2.90
2023-03-17T08:44:44.271Z,3.05
2023-03-17T08:47:10.876Z,2.97
2023-03-17T08:49:37.432Z,3.00
2023-03-17T08:52:04.281Z,2.75
2023-03-17T08:54:30.646Z,2.80
2023-03-17T08:56:57.667Z,3.10
2023-03-17T08:59:24.013Z,2.92
2023-03-17T09:01:50.568Z,3.42
2023-03-17T09:04:17.092Z,3.90
2023-03-17T09:07:01.140Z,3.03
2023-03-17T09:09:30.717Z,2.97
2023-03-17T09:11:57.279Z,4.28
2023-03-17T09:14:24.791Z,3.90
2023-03-17T09:16:51.278Z,3.08
2023-03-17T09:19:17.928Z,3.55
2023-03-17T09:21:44.845Z,3.05
2023-03-17T09:24:11.321Z,2.95
2023-03-17T09:26:37.666Z,3.35
2023-03-17T09:29:05.174Z,3.38
2023-03-17T09:31:32.204Z,3.42
2023-03-17T09:33:58.845Z,3.63
2023-03-17T09:36:26.037Z,3.58
2023-03-17T09:38:52.596Z,3.40
2023-03-17T09:41:37.867Z,3.67
2023-03-17T09:44:15.087Z,3.50
2023-03-17T09:47:00.057Z,3.70
2023-03-17T09:49:38.379Z,3.15
2023-03-17T09:52:04.814Z,3.20
2023-03-17T09:54:33.450Z,3.75
2023-03-17T09:57:18.433Z,3.35
2023-03-17T09:59:47.299Z,3.80
2023-03-17T10:02:17.333Z,3.53
2023-03-17T10:04:44.943Z,3.53
2023-03-17T10:07:16.100Z,3.92
2023-03-17T10:09:46.206Z,3.22
2023-03-17T10:12:20.019Z,3.25
2023-03-17T10:14:54.449Z,3.95
2023-03-17T10:17:26.061Z,3.67
2023-03-17T10:20:08.345Z,3.80
2023-03-17T10:22:38.828Z,3.25
2023-03-17T10:25:10.045Z,3.65
2023-03-17T10:27:37.201Z,3.90
2023-03-17T10:30:04.718Z,3.70
2023-03-17T10:32:32.245Z,4.00
2023-03-17T10:34:58.539Z,3.63
2023-03-17T10:37:26.759Z,3.70
2023-03-17T10:39:56.961Z,3.58
2023-03-17T10:42:27.330Z,3.58
2023-03-17T10:44:56.314Z,3.83
2023-03-17T10:47:24.368Z,3.90
2023-03-17T10:49:52.450Z,4.18
2023-03-17T10:52:21.058Z,3.38
2023-03-17T10:54:48.416Z,3.95
2023-03-17T10:57:15.298Z,3.58
2023-03-17T10:59:44.473Z,4.05
2023-03-17T11:02:20.194Z,3.70
2023-03-17T11:04:46.900Z,3.83
2023-03-17T11:07:16.239Z,3.85
2023-03-17T11:09:42.971Z,4.00
2023-03-17T11:12:29.348Z,3.42
2023-03-17T11:15:00.160Z,3.80
2023-03-17T11:17:41.832Z,3.72
2023-03-17T11:20:26.486Z,3.70
2023-03-17T11:22:56.499Z,4.15
2023-03-17T11:25:24.575Z,3.67
2023-03-17T11:27:57.493Z,3.80
2023-03-17T11:30:39.547Z,4.07
2023-03-17T11:33:08.957Z,4.18
2023-03-17T11:35:53.909Z,3.33
2023-03-17T11:38:24.721Z,3.95
2023-03-17T11:41:00.221Z,3.88
2023-03-17T11:43:44.174Z,4.30
2023-03-17T11:46:22.991Z,4.03
2023-03-17T11:49:08.002Z,3.95
2023-03-17T11:51:40.586Z,4.05
2023-03-17T11:56:46.286Z,3.60
2023-03-17T11:59:33.374Z,4.28
2023-03-17T12:02:11.119Z,4.22
2023-03-17T12:04:53.238Z,3.92
2023-03-17T12:07:30.077Z,4.00
2023-03-17T12:10:16.740Z,4.20
2023-03-17T12:12:51.209Z,4.10
2023-03-17T12:15:37.985Z,4.00
2023-03-17T12:18:10.446Z,3.75
2023-03-17T12:20:55.415Z,3.30
2023-03-17T12:23:22.304Z,3.53
2023-03-17T12:25:58.126Z,3.63
2023-03-17T12:28:29.624Z,3.42
2023-03-17T12:31:00.312Z,5.28
2023-03-17T12:33:45.491Z,3.97
2023-03-17T12:36:15.375Z,4.00
2023-03-17T12:38:47.411Z,4.32
2023-03-17T12:41:17.350Z,4.75
2023-03-17T12:43:53.876Z,4.13
2023-03-17T12:46:20.298Z,3.60
2023-03-17T12:49:13.619Z,3.78
2023-03-17T12:54:13.043Z,3.92
2023-03-17T12:56:43.779Z,4.15
2023-03-17T12:59:15.839Z,3.55
2023-03-17T13:01:46.598Z,4.63
2023-03-17T13:04:13.207Z,4.22
2023-03-17T13:06:43.612Z,4.40
2023-03-17T13:09:39.870Z,4.25
2023-03-17T13:12:06.721Z,4.28
2023-03-17T13:14:41.716Z,3.97
2023-03-17T13:17:17.856Z,5.20
2023-03-17T13:20:10.808Z,4.22
2023-03-17T13:25:12.691Z,3.83
2023-03-17T13:27:39.115Z,4.25
2023-03-17T13:30:25.755Z,4.05
2023-03-17T13:33:19.540Z,4.57
2023-03-17T13:35:46.090Z,4.45
2023-03-17T13:38:24.500Z,4.32
2023-03-17T13:41:09.744Z,4.80
2023-03-17T13:43:41.826Z,4.45
2023-03-17T13:46:19.906Z,4.57
2023-03-17T13:48:46.771Z,4.85
2023-03-17T13:51:23.864Z,5.13
2023-03-17T13:53:55.320Z,4.43
2023-03-17T13:56:45.346Z,4.47
2023-03-17T13:59:18.856Z,4.90
2023-03-17T14:01:57.595Z,4.03
2023-03-17T14:04:47.029Z,4.60
2023-03-17T14:07:18.816Z,4.80
2023-03-17T14:09:45.381Z,4.97
2023-03-17T14:12:12.256Z,4.35
2023-03-17T14:14:48.263Z,4.50
2023-03-17T14:17:17.379Z,4.35
2023-03-17T14:19:59.678Z,5.20
2023-03-17T14:22:26.520Z,5.35
2023-03-17T14:24:53.932Z,4.40
2023-03-17T14:27:22.319Z,5.15
2023-03-17T14:29:48.688Z,4.57
2023-03-17T14:32:16.312Z,4.53
2023-03-17T14:34:48.217Z,4.38
2023-03-17T14:37:15.131Z,4.57
2023-03-17T14:39:45.579Z,4.78
2023-03-17T14:42:11.947Z,5.35
2023-03-17T14:44:39.504Z,5.15
2023-03-17T14:47:12.469Z,4.85
2023-03-17T14:49:39.383Z,4.65
2023-03-17T14:52:06.102Z,5.07
2023-03-17T14:54:35.702Z,4.60
2023-03-17T14:57:05.615Z,5.25
2023-03-17T14:59:34.806Z,4.57
2023-03-17T15:02:02.686Z,4.65
2023-03-17T15:04:31.099Z,5.05
2023-03-17T15:06:58.873Z,5.07
2023-03-17T15:09:25.836Z,5.32
2023-03-17T15:11:54.032Z,5.18
2023-03-17T15:14:34.296Z,5.55
2023-03-17T15:17:04.529Z,5.30
2023-03-17T15:19:36.297Z,8.32
2023-03-17T15:22:05.116Z,6.63
2023-03-17T15:24:31.458Z,5.75
2023-03-17T15:27:02.000Z,6.10
2023-03-17T15:29:28.907Z,7.40
2023-03-17T15:32:15.579Z,5.82
2023-03-17T15:34:42.050Z,6.35
2023-03-17T15:37:15.838Z,4.82
2023-03-17T15:39:42.277Z,5.13
2023-03-17T15:42:08.923Z,4.70
2023-03-17T15:44:35.407Z,4.90
2023-03-17T15:47:02.445Z,5.20
2023-03-17T15:49:29.963Z,5.07
2023-03-17T15:51:56.335Z,4.93
2023-03-17T15:54:22.893Z,4.95
2023-03-17T15:56:49.269Z,5.15
2023-03-17T15:59:15.612Z,6.05
2023-03-17T16:01:42.413Z,7.15
2023-03-17T16:04:09.074Z,5.78
2023-03-17T16:06:35.573Z,5.65
2023-03-17T16:09:01.950Z,5.13
2023-03-17T16:11:30.553Z,4.88
2023-03-17T16:13:57.871Z,5.40
2023-03-17T16:16:30.454Z,5.35
2023-03-17T16:21:24.028Z,4.70
2023-03-17T16:23:50.577Z,4.88
2023-03-17T16:26:17.287Z,4.90
2023-03-17T16:28:45.379Z,5.20
2023-03-17T16:31:22.391Z,5.18
2023-03-17T16:33:49.171Z,5.35
2023-03-17T16:36:16.679Z,5.65
2023-03-17T16:38:43.531Z,5.68
2023-03-17T16:41:15.135Z,5.45
2023-03-17T16:43:43.107Z,5.07
2023-03-17T16:46:10.365Z,5.10
2023-03-17T16:48:36.779Z,5.38
2023-03-17T16:51:03.867Z,6.03
2023-03-17T16:53:30.428Z,5.65
2023-03-17T16:55:56.857Z,5.60
2023-03-17T16:58:24.373Z,5.97
2023-03-17T17:00:52.237Z,6.97
2023-03-17T17:03:18.625Z,21.52
2023-03-17T17:05:45.189Z,9.45
2023-03-17T17:08:11.530Z,10.32
2023-03-17T17:10:38.155Z,7.80
2023-03-17T17:13:07.602Z,6.75
2023-03-17T17:15:35.186Z,6.65
2023-03-17T17:18:02.809Z,5.97
2023-03-17T17:20:32.449Z,5.72
2023-03-17T17:23:00.548Z,5.85
2023-03-17T17:25:27.265Z,6.40
2023-03-17T17:27:54.041Z,6.25
2023-03-17T17:30:22.027Z,6.32
2023-03-17T17:32:48.569Z,5.90
2023-03-17T17:35:15.909Z,6.93
2023-03-17T17:37:42.660Z,6.40
2023-03-17T17:40:11.837Z,6.28
2023-03-17T17:42:39.801Z,6.88
2023-03-17T17:45:06.431Z,6.75
2023-03-17T17:47:32.889Z,8.40
2023-03-17T17:49:59.646Z,8.75
2023-03-17T17:52:26.036Z,9.25
2023-03-17T17:54:52.400Z,8.05
2023-03-17T17:57:18.845Z,8.63
2023-03-17T17:59:45.157Z,8.73
2023-03-17T18:02:12.565Z,8.30
2023-03-17T18:04:39.218Z,9.20
2023-03-17T18:07:05.685Z,8.48
2023-03-17T18:09:32.115Z,9.65
2023-03-17T18:11:58.544Z,9.32
2023-03-17T18:14:25.387Z,9.80
2023-03-17T18:16:52.134Z,10.35
2023-03-17T18:19:18.556Z,10.07
2023-03-17T18:21:46.159Z,8.68
2023-03-17T18:24:13.245Z,11.15
2023-03-17T18:26:39.549Z,12.00
2023-03-17T18:29:06.677Z,51.38
2023-03-17T18:31:51.768Z,16.08
2023-03-17T18:34:29.199Z,22.35
2023-03-17T18:36:57.686Z,20.98
2023-03-17T18:39:24.035Z,21.40
2023-03-17T18:41:50.522Z,15.85
2023-03-17T18:44:19.609Z,14.05
2023-03-17T18:46:46.556Z,11.77
2023-03-17T18:49:13.082Z,12.38
2023-03-17T18:51:39.479Z,9.40
2023-03-17T18:54:06.360Z,10.15
2023-03-17T18:56:32.695Z,10.10
2023-03-17T18:58:59.107Z,12.40
2023-03-17T19:01:26.144Z,13.38
2023-03-17T19:03:52.775Z,9.90
2023-03-17T19:06:20.455Z,9.75
2023-03-17T19:08:47.445Z,11.43
2023-03-17T19:11:15.335Z,12.20
2023-03-17T19:13:42.164Z,10.68
2023-03-17T19:16:09.039Z,10.75
2023-03-17T19:18:36.842Z,10.65
2023-03-17T19:21:03.758Z,10.60
2023-03-17T19:23:32.309Z,11.25
2023-03-17T19:26:01.172Z,10.40
2023-03-17T19:28:27.769Z,10.27
2023-03-17T19:30:55.970Z,11.50
2023-03-17T19:33:22.512Z,12.27
2023-03-17T19:35:55.129Z,11.77
2023-03-17T19:38:21.900Z,10.95
2023-03-17T19:40:48.401Z,11.50
2023-03-17T19:43:25.670Z,12.02
2023-03-17T19:45:59.558Z,13.65
2023-03-17T19:48:27.603Z,13.93
2023-03-17T19:50:54.557Z,13.68
2023-03-17T19:53:21.544Z,12.68
2023-03-17T19:55:49.166Z,9.90
2023-03-17T19:58:16.212Z,8.70
2023-03-17T20:00:42.496Z,8.38
2023-03-17T20:03:08.897Z,7.88
2023-03-17T20:05:35.296Z,7.55
2023-03-17T20:08:01.737Z,8.00
2023-03-17T20:10:28.595Z,7.35
2023-03-17T20:12:57.196Z,8.85
2023-03-17T20:15:23.762Z,9.45
2023-03-17T20:17:50.182Z,7.32
2023-03-17T20:20:16.668Z,16.63
2023-03-17T20:22:43.859Z,6.78
2023-03-17T20:25:10.759Z,6.38
2023-03-17T20:27:37.377Z,7.90
2023-03-17T20:30:04.859Z,6.90
2023-03-17T20:32:31.295Z,6.47
2023-03-17T20:34:58.428Z,5.78
2023-03-17T20:37:24.801Z,6.30
2023-03-17T20:39:52.651Z,6.47
2023-03-17T20:42:20.631Z,6.82
2023-03-17T20:44:53.635Z,7.10
2023-03-17T20:47:20.885Z,7.00
2023-03-17T20:49:47.860Z,8.23
2023-03-17T20:52:14.843Z,7.22
2023-03-17T20:54:41.404Z,6.90
2023-03-17T20:57:10.438Z,6.63
2023-03-17T20:59:37.110Z,6.45
2023-03-17T21:02:13.151Z,6.90
2023-03-17T21:04:40.236Z,6.05
2023-03-17T21:07:09.999Z,6.50
2023-03-17T21:09:38.267Z,6.23
2023-03-17T21:12:04.647Z,6.40
2023-03-17T21:14:31.097Z,6.07
2023-03-17T21:16:57.820Z,7.03
2023-03-17T21:19:24.780Z,5.82
2023-03-17T21:21:54.372Z,6.30
2023-03-17T21:24:28.513Z,5.90
2023-03-17T21:26:55.023Z,7.28
2023-03-17T21:29:21.412Z,6.90
2023-03-17T21:31:49.236Z,7.40
2023-03-17T21:34:15.597Z,6.43
2023-03-17T21:36:42.227Z,7.43
2023-03-17T21:39:09.523Z,7.32
2023-03-17T21:41:37.802Z,7.10
2023-03-17T21:44:04.766Z,7.63
2023-03-17T21:46:38.878Z,6.90
2023-03-17T21:49:06.185Z,7.47
2023-03-17T21:51:32.738Z,7.50
2023-03-17T21:53:59.587Z,7.82
2023-03-17T21:56:26.020Z,7.45
2023-03-17T21:58:52.541Z,7.47
2023-03-17T22:01:20.891Z,7.70
2023-03-17T22:03:48.120Z,7.35
2023-03-17T22:06:16.604Z,7.30
2023-03-17T22:08:43.029Z,7.18
2023-03-17T22:11:10.757Z,7.22
2023-03-17T22:13:37.287Z,7.80
2023-03-17T22:16:04.516Z,8.32
2023-03-17T22:18:33.236Z,7.28
2023-03-17T22:21:00.260Z,7.03
2023-03-17T22:23:27.081Z,7.28
2023-03-17T22:25:53.444Z,7.35
2023-03-17T22:28:19.760Z,7.65
2023-03-17T22:30:46.200Z,7.40
2023-03-17T22:33:13.061Z,7.30
2023-03-17T22:35:39.857Z,7.65
2023-03-17T22:38:06.909Z,8.07
2023-03-17T22:40:33.997Z,7.57
2023-03-17T22:43:00.944Z,7.18
2023-03-17T22:45:27.373Z,7.82
2023-03-17T22:47:54.266Z,8.07
2023-03-17T22:50:20.714Z,7.05
2023-03-17T22:52:47.310Z,7.85
2023-03-17T22:55:14.176Z,7.28
2023-03-17T22:57:40.695Z,8.23
2023-03-17T23:00:13.721Z,7.88
2023-03-17T23:02:43.302Z,7.70
2023-03-17T23:05:09.947Z,7.13
2023-03-17T23:07:49.701Z,7.80
2023-03-17T23:10:17.652Z,7.35
2023-03-17T23:12:44.741Z,7.68
2023-03-17T23:15:11.568Z,8.90
2023-03-17T23:17:38.461Z,8.55
2023-03-17T23:20:06.423Z,7.97
2023-03-17T23:22:32.772Z,7.78
2023-03-17T23:25:00.401Z,8.13
2023-03-17T23:27:27.142Z,8.27
2023-03-17T23:29:54.086Z,8.27
2023-03-17T23:32:20.527Z,8.70
2023-03-17T23:34:48.002Z,7.85
2023-03-17T23:37:14.473Z,8.77
2023-03-17T23:39:41.571Z,8.85
2023-03-17T23:42:07.952Z,8.68
2023-03-17T23:44:34.351Z,8.75
2023-03-17T23:47:00.677Z,8.88
2023-03-17T23:49:27.312Z,8.95
2023-03-17T23:51:54.406Z,7.82
2023-03-17T23:54:20.767Z,8.63
2023-03-17T23:56:47.942Z,8.85
2023-03-17T23:59:14.313Z,9.48
